Time;durP1;ratioP1;P1;durP2;ratioP2;P2;SDS_P1;SDS_P2;PMS_P1;PMS_P2;Temp;Humidity;BMP_temperature;BMP_pressure;BME280_temperature;BME280_humidity;BME280_pressure;Samples;Min_cycle;Max_cycle;Signal;HPM_P1;HPM_P2
2022/02/12 00:01:29;;;;;;;543.47;516.30;;;-0.60;99.90;;;;;;5094823;28;20298;-85
2022/02/12 00:04:07;;;;;;;513.03;488.93;;;-0.40;99.90;;;;;;5095161;28;20819;-85
2022/02/12 00:06:44;;;;;;;473.77;451.70;;;-0.10;99.90;;;;;;5094395;28;21357;-85
2022/02/12 00:09:30;;;;;;;443.40;423.77;;;0.00;99.90;;;;;;5094453;28;20862;-85
2022/02/12 00:12:16;;;;;;;445.97;425.33;;;0.00;99.90;;;;;;5094460;28;20456;-85
2022/02/12 00:15:07;;;;;;;464.10;443.87;;;-0.10;99.90;;;;;;5094963;28;20503;-85
2022/02/12 00:17:37;;;;;;;469.40;448.80;;;-0.10;99.90;;;;;;5094494;28;20450;-85
2022/02/12 00:20:32;;;;;;;469.13;449.20;;;-0.20;99.90;;;;;;5094433;28;20561;-86
2022/02/12 00:23:16;;;;;;;464.63;444.37;;;-0.10;99.90;;;;;;5094534;28;20451;-86
2022/02/12 00:26:16;;;;;;;463.40;442.30;;;-0.10;99.90;;;;;;5093584;28;20473;-85
2022/02/12 00:28:48;;;;;;;481.37;459.80;;;-0.20;99.90;;;;;;5074390;28;20840;-85
2022/02/12 00:31:24;;;;;;;425.73;407.73;;;-0.10;99.90;;;;;;5078097;28;20455;-86
2022/02/12 00:33:55;;;;;;;372.97;357.73;;;0.00;99.90;;;;;;5094721;28;20460;-86
2022/02/12 00:36:36;;;;;;;392.77;377.77;;;0.00;99.90;;;;;;5093966;28;20492;-86
2022/02/12 00:39:21;;;;;;;417.97;400.90;;;-0.10;99.90;;;;;;5093526;28;20492;-86
2022/02/12 00:45:00;;;;;;;464.20;445.37;;;-0.40;99.90;;;;;;5094299;28;20465;-85
2022/02/12 00:47:48;;;;;;;526.67;503.37;;;-0.30;99.90;;;;;;5093774;28;20542;-85
2022/02/12 00:50:28;;;;;;;559.40;533.17;;;-0.50;99.90;;;;;;5094070;28;20469;-86
2022/02/12 00:53:19;;;;;;;554.43;529.27;;;-0.50;99.90;;;;;;5093394;28;20965;-85
2022/02/12 00:56:21;;;;;;;600.27;571.17;;;-0.70;99.90;;;;;;5093969;28;20811;-85
2022/02/12 00:59:09;;;;;;;629.50;596.30;;;-0.70;99.90;;;;;;5072541;28;20486;-86
2022/02/12 01:01:53;;;;;;;637.37;602.00;;;-0.80;99.90;;;;;;5077492;28;20449;-85
2022/02/12 01:04:31;;;;;;;630.15;595.72;;;-0.70;99.90;;;;;;5094127;28;20983;-85
2022/02/12 01:07:07;;;;;;;642.47;606.97;;;-0.80;99.90;;;;;;5093647;28;20556;-85
2022/02/12 01:09:57;;;;;;;650.47;613.20;;;-0.90;99.90;;;;;;5093478;28;20474;-85
2022/02/12 01:12:29;;;;;;;640.33;604.27;;;-0.90;99.90;;;;;;5093526;28;20499;-85
2022/02/12 01:15:23;;;;;;;637.30;602.47;;;-1.10;99.90;;;;;;5093744;28;20453;-85
2022/02/12 01:17:54;;;;;;;628.67;594.60;;;-1.10;99.90;;;;;;5092557;28;20815;-85
2022/02/12 01:20:39;;;;;;;654.70;618.00;;;-1.20;99.90;;;;;;5093360;28;20883;-86
2022/02/12 01:23:18;;;;;;;682.00;642.25;;;-1.20;99.90;;;;;;5093151;28;20196;-85
2022/02/12 01:28:43;;;;;;;732.80;687.63;;;-1.40;99.90;;;;;;5088073;28;21041;-85
2022/02/12 01:31:33;;;;;;;731.08;684.38;;;-1.60;99.90;;;;;;5093331;28;20503;-85
2022/02/12 01:34:11;;;;;;;779.28;729.30;;;-1.80;99.90;;;;;;5093529;28;20200;-85
2022/02/12 01:36:51;;;;;;;741.23;694.30;;;-1.80;99.90;;;;;;5093388;28;20207;-85
2022/02/12 01:39:24;;;;;;;774.42;724.45;;;-1.80;99.90;;;;;;5092928;28;20850;-85
2022/02/12 01:42:15;;;;;;;774.60;724.50;;;-1.80;99.90;;;;;;5092962;28;20196;-85
2022/02/12 01:45:00;;;;;;;819.58;763.97;;;-1.90;99.90;;;;;;5092991;28;20199;-85
2022/02/12 01:48:04;;;;;;;818.10;760.58;;;-2.10;99.90;;;;;;5093105;28;20198;-85
2022/02/12 01:50:41;;;;;;;823.17;764.20;;;-2.00;99.90;;;;;;5092899;28;20578;-85
2022/02/12 01:53:30;;;;;;;818.90;760.30;;;-1.90;99.90;;;;;;5093099;28;20275;-85
2022/02/12 01:56:25;;;;;;;818.47;760.70;;;-1.90;99.90;;;;;;5092957;28;20209;-85
2022/02/12 01:59:30;;;;;;;825.45;766.90;;;-2.00;99.90;;;;;;5090770;28;20269;-85
2022/02/12 02:02:06;;;;;;;820.85;762.85;;;-2.00;99.90;;;;;;5092929;28;20187;-85
2022/02/12 02:04:53;;;;;;;834.15;774.47;;;-2.10;99.90;;;;;;5092584;28;20192;-84
2022/02/12 02:07:41;;;;;;;830.15;772.60;;;-2.10;99.90;;;;;;5092456;28;20282;-85
2022/02/12 02:10:10;;;;;;;852.25;792.20;;;-2.20;99.90;;;;;;5092209;28;20220;-84
2022/02/12 02:12:57;;;;;;;807.20;749.50;;;-2.30;99.90;;;;;;5092531;28;20704;-85
2022/02/12 02:15:39;;;;;;;830.60;776.60;;;-2.30;99.90;;;;;;5092658;28;20230;-84
2022/02/12 02:18:20;;;;;;;839.22;784.83;;;-2.50;99.90;;;;;;5091910;28;20192;-85
2022/02/12 02:21:15;;;;;;;;;;;;;;;;;;;;;
2022/02/12 02:24:02;;;;;;;826.67;773.58;;;-2.50;99.90;;;;;;5092211;28;20294;-85
2022/02/12 02:26:37;;;;;;;825.15;770.10;;;-2.40;99.90;;;;;;5092356;28;20192;-85
2022/02/12 02:29:07;;;;;;;831.17;775.72;;;-2.70;99.90;;;;;;5091462;28;20211;-85
2022/02/12 02:31:58;;;;;;;838.47;782.90;;;-2.60;99.90;;;;;;5092652;28;20199;-85
2022/02/12 02:34:32;;;;;;;848.85;790.55;;;-2.60;99.90;;;;;;5092429;28;20195;-84
2022/02/12 02:37:12;;;;;;;844.35;788.10;;;-2.60;99.90;;;;;;5091936;28;20255;-84
2022/02/12 02:39:47;;;;;;;859.17;796.65;;;-2.70;99.90;;;;;;5091966;28;20215;-85
2022/02/12 02:42:36;;;;;;;847.38;786.97;;;-2.70;99.90;;;;;;5092315;28;20286;-85
2022/02/12 02:45:19;;;;;;;841.50;780.42;;;-2.70;99.90;;;;;;5092414;28;20199;-84
2022/02/12 02:47:53;;;;;;;845.47;785.40;;;-2.60;99.90;;;;;;5092000;28;20199;-85
2022/02/12 02:56:10;;;;;;;851.80;792.40;;;-2.70;99.90;;;;;;5092321;28;20190;-85
2022/02/12 02:59:08;;;;;;;849.30;790.35;;;-2.80;99.90;;;;;;5091845;28;20718;-85
2022/02/12 03:01:38;;;;;;;843.60;784.42;;;-2.80;99.90;;;;;;5072113;28;20572;-85
2022/02/12 03:04:15;;;;;;;851.90;791.50;;;-2.80;99.90;;;;;;5077911;28;20603;-84
2022/02/12 03:06:48;;;;;;;857.70;796.85;;;-2.70;99.90;;;;;;5094434;28;20199;-84
2022/02/12 03:09:16;;;;;;;863.90;801.42;;;-2.60;99.90;;;;;;5091796;28;20219;-85
2022/02/12 03:12:13;;;;;;;868.67;805.50;;;-2.50;99.90;;;;;;5093339;28;20183;-84
2022/02/12 03:15:09;;;;;;;872.45;809.42;;;-2.60;99.90;;;;;;5090978;28;20184;-85
2022/02/12 03:17:43;;;;;;;864.63;800.03;;;-2.60;99.90;;;;;;5083754;28;20207;-85
2022/02/12 03:20:16;;;;;;;852.05;790.47;;;-2.50;99.90;;;;;;5095321;28;20211;-85
2022/02/12 03:22:48;;;;;;;857.85;795.33;;;-2.60;99.90;;;;;;5096201;28;20607;-85
2022/02/12 03:25:26;;;;;;;862.65;800.42;;;-2.70;99.90;;;;;;5095649;28;20285;-85
2022/02/12 03:27:58;;;;;;;859.28;797.08;;;-2.60;99.90;;;;;;5095520;28;20274;-85
2022/02/12 03:30:34;;;;;;;857.92;795.30;;;-2.60;99.90;;;;;;5095364;28;20212;-85
2022/02/12 03:33:19;;;;;;;861.08;798.03;;;-2.70;99.90;;;;;;5095625;28;20257;-84
2022/02/12 03:36:04;;;;;;;868.40;804.28;;;-2.60;99.90;;;;;;5095600;28;20227;-84
2022/02/12 03:38:43;;;;;;;868.35;804.42;;;-2.50;99.90;;;;;;5095267;28;20675;-84
2022/02/12 03:44:10;;;;;;;858.70;796.75;;;-2.50;99.90;;;;;;5093366;28;20196;-85
2022/02/12 03:46:49;;;;;;;870.05;804.30;;;-2.60;99.90;;;;;;5095658;28;20196;-84
2022/02/12 03:52:10;;;;;;;865.55;802.33;;;-2.50;99.90;;;;;;5088194;28;20199;-85
2022/02/12 03:54:54;;;;;;;860.65;797.58;;;-2.50;99.90;;;;;;5095260;28;20222;-85
2022/02/12 03:57:30;;;;;;;859.05;797.55;;;-2.60;99.90;;;;;;5077151;28;20189;-84
2022/02/12 04:00:22;;;;;;;865.53;802.22;;;-2.70;99.90;;;;;;5103432;28;20294;-85
2022/02/12 04:06:11;;;;;;;867.85;805.05;;;-2.60;99.90;;;;;;5081603;28;20199;-85
2022/02/12 04:08:42;;;;;;;876.90;813.05;;;-2.50;99.90;;;;;;5093365;28;20211;-85
2022/02/12 04:11:13;;;;;;;871.30;806.38;;;-2.50;99.90;;;;;;5093996;28;20191;-84
2022/02/12 04:20:38;;;;;;;869.05;805.92;;;-2.50;99.90;;;;;;5091073;28;20223;-85
2022/02/12 04:23:25;;;;;;;863.45;802.05;;;-2.50;99.90;;;;;;5094472;28;20184;-85
2022/02/12 04:26:21;;;;;;;862.72;802.05;;;-2.40;99.90;;;;;;5072982;28;20188;-85
2022/02/12 04:29:08;;;;;;;862.50;802.63;;;-2.40;99.90;;;;;;5054732;28;20217;-84
2022/02/12 04:31:43;;;;;;;867.83;808.05;;;-2.50;99.90;;;;;;5072379;28;20280;-85
2022/02/12 04:34:22;;;;;;;870.70;810.28;;;-2.50;99.90;;;;;;5074459;28;20201;-84
2022/02/12 04:37:09;;;;;;;865.97;805.90;;;-2.60;99.90;;;;;;5076535;28;20310;-85
2022/02/12 04:39:52;;;;;;;861.10;800.50;;;-2.70;99.90;;;;;;5073865;28;20212;-84
2022/02/12 04:42:38;;;;;;;836.80;778.03;;;-2.60;99.90;;;;;;5082747;28;20591;-82
2022/02/12 04:45:12;;;;;;;848.42;789.03;;;-2.60;99.90;;;;;;5074769;28;20231;-86
2022/02/12 04:47:51;;;;;;;843.65;783.00;;;-2.60;99.90;;;;;;5076530;28;20199;-84
2022/02/12 04:50:24;;;;;;;867.90;804.30;;;-2.60;99.90;;;;;;5075871;28;20218;-81
2022/02/12 04:52:57;;;;;;;874.70;810.75;;;-2.40;99.90;;;;;;5075863;28;20290;-85
2022/02/12 04:55:26;;;;;;;864.85;801.63;;;-2.30;99.90;;;;;;5073626;28;20734;-85
2022/02/12 04:58:08;;;;;;;870.20;806.42;;;-2.40;99.90;;;;;;5074845;28;20188;-85
2022/02/12 05:00:41;;;;;;;860.08;797.92;;;-2.30;99.90;;;;;;5086359;28;20208;-85
2022/02/12 05:03:08;;;;;;;865.25;803.75;;;-2.40;99.90;;;;;;5074577;28;20601;-85
2022/02/12 05:05:37;;;;;;;872.90;809.00;;;-2.40;99.90;;;;;;5074424;28;20262;-84
2022/02/12 05:08:08;;;;;;;867.85;804.08;;;-2.20;99.90;;;;;;5073827;28;20276;-85
2022/02/12 05:10:41;;;;;;;872.95;808.60;;;-2.10;99.90;;;;;;5063436;28;20247;-84
2022/02/12 05:13:15;;;;;;;867.47;804.20;;;-2.20;99.90;;;;;;5073396;28;20215;-85
2022/02/12 05:15:50;;;;;;;871.58;808.25;;;-2.00;99.90;;;;;;5072842;28;20306;-85
2022/02/12 05:18:19;;;;;;;854.53;792.63;;;-1.90;99.90;;;;;;5073399;28;20212;-84
2022/02/12 05:20:56;;;;;;;839.50;778.90;;;-2.00;99.90;;;;;;5074890;28;20303;-86
2022/02/12 05:23:26;;;;;;;829.72;768.80;;;-2.20;99.90;;;;;;5072954;28;20196;-85
2022/02/12 05:25:56;;;;;;;849.75;788.95;;;-2.30;99.90;;;;;;5074147;28;20184;-85
2022/02/12 05:28:22;;;;;;;848.33;787.58;;;-2.30;99.90;;;;;;5076039;28;20277;-85
2022/02/12 05:30:49;;;;;;;851.42;791.08;;;-2.30;99.90;;;;;;5059998;28;20224;-85
2022/02/12 05:33:16;;;;;;;839.95;781.05;;;-2.40;99.90;;;;;;5062691;28;20238;-84
2022/02/12 05:35:49;;;;;;;830.30;772.45;;;-2.50;99.90;;;;;;5073276;28;20197;-85
2022/02/12 05:38:16;;;;;;;851.03;791.85;;;-2.50;99.90;;;;;;5073524;28;20212;-85
2022/02/12 05:40:46;;;;;;;849.40;789.60;;;-2.60;99.90;;;;;;5073015;28;20269;-85
2022/02/12 05:43:16;;;;;;;836.50;776.60;;;-2.60;99.90;;;;;;5074685;28;20227;-85
2022/02/12 05:45:44;;;;;;;859.72;798.92;;;-2.60;99.90;;;;;;5074172;28;20279;-85
2022/02/12 05:48:16;;;;;;;845.60;786.47;;;-2.60;99.90;;;;;;5074163;28;20227;-84
2022/02/12 05:50:49;;;;;;;832.08;774.55;;;-2.70;99.90;;;;;;5074187;28;20184;-85
2022/02/12 05:53:19;;;;;;;827.13;769.65;;;-2.80;99.90;;;;;;5074415;28;20204;-85
2022/02/12 05:55:48;;;;;;;841.78;782.13;;;-2.90;99.90;;;;;;5059109;28;20188;-84
2022/02/12 05:58:17;;;;;;;858.22;792.90;;;-2.90;99.90;;;;;;5074401;28;20200;-85
2022/02/12 06:00:48;;;;;;;833.60;769.67;;;-2.70;99.90;;;;;;5073293;28;20216;-85
2022/02/12 06:03:15;;;;;;;848.35;782.42;;;-2.60;99.90;;;;;;5074747;28;20232;-85
2022/02/12 06:05:42;;;;;;;842.13;777.05;;;-2.60;99.90;;;;;;5074803;28;20199;-84
2022/02/12 06:08:12;;;;;;;835.25;769.22;;;-2.50;99.90;;;;;;5072582;28;20245;-84
2022/02/12 06:10:50;;;;;;;846.72;781.33;;;-2.30;99.90;;;;;;5073050;28;20226;-85
2022/02/12 06:13:25;;;;;;;850.45;783.10;;;-2.10;99.90;;;;;;5072567;28;20608;-85
2022/02/12 06:16:10;;;;;;;850.88;784.38;;;-2.00;99.90;;;;;;5052850;28;20273;-85
2022/02/12 06:18:52;;;;;;;844.03;779.30;;;-1.90;99.90;;;;;;5069590;28;20212;-85
2022/02/12 06:21:25;;;;;;;861.42;796.13;;;-1.80;99.90;;;;;;5072841;28;20273;-85
2022/02/12 06:23:52;;;;;;;857.50;793.00;;;-1.70;99.90;;;;;;5072504;28;20661;-85
2022/02/12 06:26:19;;;;;;;857.78;792.65;;;-1.70;99.90;;;;;;5073779;28;20661;-85
2022/02/12 06:28:53;;;;;;;853.30;788.65;;;-1.70;99.90;;;;;;5074152;28;20244;-84
2022/02/12 06:31:50;;;;;;;854.28;790.25;;;-1.70;99.90;;;;;;5074891;28;20191;-85
2022/02/12 06:34:33;;;;;;;850.28;786.85;;;-1.70;99.90;;;;;;5073388;28;20677;-85
2022/02/12 06:37:12;;;;;;;848.22;785.63;;;-1.80;99.90;;;;;;5073109;28;20227;-84
2022/02/12 06:39:50;;;;;;;841.97;778.58;;;-1.80;99.90;;;;;;5073797;28;20226;-86
2022/02/12 06:42:32;;;;;;;845.05;782.92;;;-1.80;99.90;;;;;;5069374;28;20211;-85
2022/02/12 06:45:12;;;;;;;844.83;784.38;;;-1.90;99.90;;;;;;5073220;28;20280;-85
2022/02/12 06:47:43;;;;;;;847.70;787.45;;;-1.90;99.90;;;;;;5053966;28;20250;-85
2022/02/12 06:50:32;;;;;;;841.45;781.78;;;-2.00;99.90;;;;;;5054127;28;20225;-85
2022/02/12 06:53:33;;;;;;;;;;;;;;;;;;;;;
2022/02/12 06:56:20;;;;;;;852.58;791.67;;;-2.00;99.90;;;;;;5078730;28;20191;-85
2022/02/12 06:59:43;;;;;;;843.65;781.10;;;-2.10;99.90;;;;;;5080866;28;20643;-84
2022/02/12 07:05:33;;;;;;;849.63;785.33;;;-1.80;99.90;;;;;;5063438;28;20196;-85
2022/02/12 07:08:13;;;;;;;848.88;784.35;;;-1.80;99.90;;;;;;5071503;28;20197;-85
2022/02/12 07:10:49;;;;;;;856.85;791.92;;;-1.70;99.90;;;;;;5078106;28;20223;-85
2022/02/12 07:13:25;;;;;;;862.75;797.22;;;-1.70;99.90;;;;;;5078662;28;20234;-83
2022/02/12 07:16:06;;;;;;;861.42;798.30;;;-1.60;99.90;;;;;;5079800;28;20188;-83
2022/02/12 07:18:43;;;;;;;861.50;797.70;;;-1.50;99.90;;;;;;5080741;28;20214;-85
2022/02/12 07:21:15;;;;;;;855.90;792.78;;;-1.50;99.90;;;;;;5079013;28;20211;-84
2022/02/12 07:24:16;;;;;;;864.33;801.60;;;-1.30;99.90;;;;;;5083123;28;20683;-84
2022/02/12 07:30:38;;;;;;;855.57;795.67;;;-1.30;99.90;;;;;;5070768;28;20771;-85
2022/02/12 07:33:12;;;;;;;861.63;799.85;;;-1.30;99.90;;;;;;5076158;28;20466;-85
2022/02/12 07:36:22;;;;;;;865.55;803.47;;;-1.20;99.90;;;;;;5076947;28;20283;-85
2022/02/12 07:38:59;;;;;;;871.40;808.58;;;-1.10;99.90;;;;;;5071274;28;20216;-85
2022/02/12 07:41:39;;;;;;;873.03;810.55;;;-1.00;99.90;;;;;;5075472;28;20220;-86
2022/02/12 07:44:09;;;;;;;862.15;801.35;;;-0.80;99.90;;;;;;5078230;28;20199;-84
2022/02/12 07:46:39;;;;;;;868.80;807.28;;;-0.70;99.90;;;;;;5079307;28;20230;-84
2022/02/12 07:49:29;;;;;;;865.40;804.90;;;-0.80;99.90;;;;;;5073419;28;20215;-84
2022/02/12 07:52:15;;;;;;;;;;;;;;;;;;;;;
2022/02/12 08:08:27;;;;;;;858.43;802.33;;;-0.40;99.90;;;;;;5026783;28;20431;-84
2022/02/12 08:13:48;;;;;;;845.17;789.67;;;-0.20;99.90;;;;;;5076323;28;20619;-84
2022/02/12 08:16:35;;;;;;;837.40;784.80;;;-0.10;99.90;;;;;;5075117;28;20199;-84
2022/02/12 08:19:18;;;;;;;823.00;772.60;;;-0.10;99.90;;;;;;5077147;28;20220;-84
2022/02/12 08:22:01;;;;;;;819.93;770.33;;;0.00;99.90;;;;;;5077234;28;20569;-84
2022/02/12 08:27:28;;;;;;;744.87;702.70;;;0.20;99.90;;;;;;5078435;28;21054;-82
2022/02/12 08:29:56;;;;;;;717.17;677.80;;;0.40;99.90;;;;;;5060050;28;20463;-84
2022/02/12 08:32:29;;;;;;;725.03;686.10;;;0.40;99.90;;;;;;5077606;28;20534;-84
2022/02/12 08:38:18;;;;;;;687.80;652.97;;;0.60;99.90;;;;;;5057065;28;20495;-83
2022/02/12 08:40:45;;;;;;;658.10;626.30;;;0.70;99.90;;;;;;5079490;28;20461;-83
2022/02/12 08:43:14;;;;;;;614.13;586.47;;;0.80;99.90;;;;;;5080143;28;20451;-84
2022/02/12 08:45:41;;;;;;;597.53;571.30;;;0.80;99.90;;;;;;5082218;28;20482;-83
2022/02/12 08:48:09;;;;;;;551.13;527.93;;;0.90;99.90;;;;;;5081486;28;20451;-86
2022/02/12 08:50:36;;;;;;;518.80;497.90;;;1.00;99.90;;;;;;5082957;28;20526;-84
2022/02/12 08:53:04;;;;;;;509.47;488.67;;;1.00;99.90;;;;;;5082620;28;20450;-83
2022/02/12 08:55:31;;;;;;;537.83;515.87;;;1.10;99.90;;;;;;5083730;28;20458;-83
2022/02/12 08:57:58;;;;;;;465.93;447.90;;;1.20;99.90;;;;;;5081773;28;20962;-83
2022/02/12 09:00:26;;;;;;;352.47;339.27;;;1.30;99.90;;;;;;5084168;28;20469;-84
2022/02/12 09:02:53;;;;;;;336.27;324.27;;;1.30;99.90;;;;;;5081602;28;20593;-83
2022/02/12 09:05:20;;;;;;;287.57;276.87;;;1.40;99.90;;;;;;5082492;28;20453;-81
2022/02/12 09:07:46;;;;;;;271.93;261.10;;;1.60;99.90;;;;;;5079583;28;20958;-84
2022/02/12 09:10:13;;;;;;;205.60;198.00;;;1.50;99.90;;;;;;5081632;28;20474;-83
2022/02/12 09:12:40;;;;;;;204.90;197.37;;;1.60;99.90;;;;;;5082183;28;20459;-83
2022/02/12 09:15:08;;;;;;;166.53;159.33;;;1.60;99.90;;;;;;5082320;28;20447;-84
2022/02/12 09:17:39;;;;;;;137.17;130.83;;;1.60;99.90;;;;;;5084293;28;20472;-84
2022/02/12 09:20:06;;;;;;;139.27;132.27;;;1.60;99.90;;;;;;5081313;28;20470;-85
2022/02/12 09:22:36;;;;;;;99.70;95.10;;;1.70;99.90;;;;;;5082480;28;20527;-86
2022/02/12 09:25:03;;;;;;;87.93;82.90;;;1.80;99.90;;;;;;5081699;28;20946;-84
2022/02/12 09:27:35;;;;;;;64.53;60.03;;;1.90;99.90;;;;;;5080417;28;20449;-84
2022/02/12 09:30:04;;;;;;;62.80;59.13;;;2.00;99.90;;;;;;5082397;28;20587;-83
2022/02/12 09:32:35;;;;;;;47.57;44.30;;;1.90;99.90;;;;;;5079869;28;20446;-88
2022/02/12 09:35:10;;;;;;;32.03;29.02;;;2.10;99.90;;;;;;5075585;28;20488;-85
2022/02/12 09:37:50;;;;;;;29.77;26.73;;;2.20;99.90;;;;;;5075714;28;20554;-85
2022/02/12 09:40:24;;;;;;;26.70;21.47;;;2.40;99.90;;;;;;5075997;28;20474;-84
2022/02/12 09:42:54;;;;;;;33.90;19.07;;;2.50;99.90;;;;;;5075420;28;20517;-86
2022/02/12 09:45:38;;;;;;;18.47;15.60;;;2.70;99.90;;;;;;5075053;28;20479;-85
2022/02/12 09:48:12;;;;;;;21.80;12.57;;;2.70;99.90;;;;;;5075824;28;20873;-88
2022/02/12 09:50:42;;;;;;;19.53;14.03;;;2.70;99.90;;;;;;5075974;28;20503;-86
2022/02/12 09:53:19;;;;;;;27.10;13.90;;;2.90;99.90;;;;;;5076701;28;20529;-85
2022/02/12 09:55:58;;;;;;;23.87;12.13;;;3.00;99.90;;;;;;5062686;28;20516;-85
2022/02/12 09:58:28;;;;;;;16.60;10.13;;;3.00;99.20;;;;;;5079523;28;20442;-87
2022/02/12 10:04:53;;;;;;;16.73;9.30;;;3.30;96.70;;;;;;5010267;28;20470;-85
2022/02/12 10:17:59;;;;;;;18.50;8.20;;;4.90;84.60;;;;;;4893747;29;20454;-86
2022/02/12 10:21:14;;;;;;;17.07;8.03;;;5.20;80.20;;;;;;4936598;28;20483;-83
2022/02/12 10:24:33;;;;;;;20.03;8.80;;;5.60;79.30;;;;;;4992315;28;20540;-86
2022/02/12 10:34:48;;;;;;;;;;;;;;;;;;;;;
2022/02/12 10:38:18;;;;;;;;;;;;;;;;;;;;;
2022/02/12 10:45:37;;;;;;;20.00;7.37;;;6.70;64.90;;;;;;5019821;28;20857;-86
2022/02/12 10:48:41;;;;;;;28.30;8.30;;;6.70;66.00;;;;;;5062138;28;20446;-88
2022/02/12 10:55:38;;;;;;;18.70;8.63;;;6.90;63.90;;;;;;4952372;28;20464;-86
2022/02/12 11:02:00;;;;;;;16.80;7.10;;;7.80;60.00;;;;;;5060364;28;20454;-87
2022/02/12 11:05:29;;;;;;;16.17;6.03;;;8.00;59.20;;;;;;5052431;28;20451;-88
2022/02/12 11:14:32;;;;;;;14.47;6.70;;;8.80;53.00;;;;;;5031043;28;20485;-87
2022/02/12 11:32:26;;;;;;;20.23;6.30;;;9.00;48.20;;;;;;4990585;28;20466;-86
2022/02/12 11:35:38;;;;;;;17.23;5.40;;;9.80;47.90;;;;;;5034337;28;20440;-87
2022/02/12 11:38:52;;;;;;;14.30;4.80;;;10.10;41.20;;;;;;5043622;28;20455;-87
2022/02/12 11:41:36;;;;;;;14.00;6.00;;;10.70;38.90;;;;;;5064451;28;20458;-86
2022/02/12 11:44:14;;;;;;;14.67;5.83;;;10.70;35.70;;;;;;5061314;28;20521;-85
2022/02/12 11:47:21;;;;;;;11.30;5.00;;;11.00;33.10;;;;;;5064689;28;20443;-86
2022/02/12 11:56:55;;;;;;;15.00;5.20;;;11.10;31.20;;;;;;5036251;28;20457;-86
2022/02/12 11:59:39;;;;;;;13.43;5.07;;;11.00;30.50;;;;;;5043276;28;20477;-86
2022/02/12 12:02:06;;;;;;;15.27;4.90;;;11.30;29.70;;;;;;5060030;28;20558;-86
2022/02/12 12:04:36;;;;;;;13.47;4.57;;;10.80;30.00;;;;;;5059655;28;20451;-86
2022/02/12 12:07:32;;;;;;;13.53;3.83;;;11.00;31.70;;;;;;5058172;28;20459;-86
2022/02/12 12:10:17;;;;;;;13.67;5.13;;;10.80;32.10;;;;;;5057962;28;20507;-86
2022/02/12 12:12:51;;;;;;;15.97;5.80;;;11.10;30.30;;;;;;5058193;28;20445;-86
2022/02/12 12:15:27;;;;;;;17.23;5.83;;;11.10;30.60;;;;;;5058758;28;20458;-86
2022/02/12 12:18:15;;;;;;;23.13;5.87;;;10.80;28.30;;;;;;5056237;28;20440;-87
2022/02/12 12:21:02;;;;;;;16.13;5.57;;;11.30;27.90;;;;;;5054973;28;20456;-86
2022/02/12 12:24:20;;;;;;;17.10;4.73;;;11.50;26.30;;;;;;5055184;28;21007;-86
2022/02/12 12:54:12;;;;;;;9.40;2.97;;;9.70;22.80;;;;;;4973990;28;20499;-87
2022/02/12 13:03:55;;;;;;;14.27;2.93;;;10.10;24.70;;;;;;4970870;28;20475;-87
2022/02/12 13:07:07;;;;;;;9.77;3.67;;;9.90;21.20;;;;;;5012384;28;20449;-87
2022/02/12 13:13:13;;;;;;;;;;;;;;;;;;;;;
2022/02/12 13:22:26;;;;;;;11.63;2.57;;;9.70;21.40;;;;;;5028605;28;20479;-87
2022/02/12 13:42:19;;;;;;;5.87;2.40;;;8.80;26.60;;;;;;4921055;29;20501;-86
2022/02/12 13:45:42;;;;;;;;;;;;;;;;;;;;;
2022/02/12 13:55:07;;;;;;;10.40;3.77;;;7.80;29.60;;;;;;4988367;28;20468;-87
2022/02/12 13:57:50;;;;;;;16.60;3.40;;;7.60;33.10;;;;;;4972233;28;20502;-86
2022/02/12 14:00:22;;;;;;;11.50;3.70;;;7.50;32.30;;;;;;5054662;28;20840;-85
2022/02/12 14:03:21;;;;;;;10.20;4.13;;;7.50;41.80;;;;;;5057191;28;20467;-86
2022/02/12 14:06:19;;;;;;;14.80;4.50;;;7.40;36.50;;;;;;5050404;28;20842;-86
2022/02/12 14:09:28;;;;;;;12.70;5.10;;;7.40;42.60;;;;;;5055603;28;20471;-86
2022/02/12 14:25:09;;;;;;;;;;;;;;;;;;;;;
2022/02/12 14:27:56;;;;;;;;;;;;;;;;;;;;;
2022/02/12 14:42:44;;;;;;;9.23;2.07;;;7.10;38.80;;;;;;4957376;28;20562;-87
2022/02/12 14:45:26;;;;;;;5.80;2.47;;;7.10;35.10;;;;;;5058020;28;20452;-87
2022/02/12 14:48:26;;;;;;;7.90;2.33;;;7.00;35.00;;;;;;5054147;28;20461;-87
2022/02/12 14:51:06;;;;;;;12.40;3.00;;;7.10;36.80;;;;;;5034133;28;20460;-86
2022/02/12 14:54:01;;;;;;;13.83;3.37;;;7.00;36.40;;;;;;5040946;28;20471;-89
2022/02/12 14:56:29;;;;;;;10.13;3.00;;;7.10;33.50;;;;;;5012277;28;20448;-86
2022/02/12 14:58:58;;;;;;;6.70;1.97;;;7.10;37.00;;;;;;5061512;28;20535;-86
2022/02/12 15:01:43;;;;;;;7.80;1.87;;;7.00;33.50;;;;;;5062714;28;20459;-87
2022/02/12 15:04:10;;;;;;;8.37;2.10;;;7.00;33.50;;;;;;5062569;28;20467;-87
2022/02/12 15:06:37;;;;;;;9.60;2.23;;;7.10;35.40;;;;;;5060996;28;20463;-86
2022/02/12 15:09:08;;;;;;;5.70;1.73;;;7.00;36.50;;;;;;5067776;28;20463;-83
2022/02/12 15:11:47;;;;;;;5.60;1.97;;;7.10;36.20;;;;;;5071625;28;20528;-84
2022/02/12 15:14:20;;;;;;;8.80;2.00;;;7.00;32.80;;;;;;5074994;28;20526;-84
2022/02/12 15:19:34;;;;;;;11.30;2.60;;;7.10;33.50;;;;;;5070618;28;20493;-84
2022/02/12 15:22:12;;;;;;;9.83;2.23;;;7.30;29.90;;;;;;5075845;28;20518;-84
2022/02/12 15:24:45;;;;;;;7.73;2.10;;;7.30;33.70;;;;;;5075105;28;20535;-84
2022/02/12 15:27:22;;;;;;;8.50;2.40;;;7.20;35.90;;;;;;5074798;28;20470;-84
2022/02/12 15:29:48;;;;;;;9.13;2.00;;;7.20;34.50;;;;;;5074099;28;20490;-84
2022/02/12 15:35:12;;;;;;;7.33;3.27;;;6.90;38.20;;;;;;5072409;28;20452;-84
2022/02/12 15:38:29;;;;;;;;;;;;;;;;;;;;;
2022/02/12 15:41:00;;;;;;;14.17;4.30;;;7.10;44.20;;;;;;5070380;28;20446;-83
2022/02/12 15:43:44;;;;;;;13.13;5.03;;;7.00;45.70;;;;;;5071954;28;20471;-85
2022/02/12 15:46:27;;;;;;;13.40;3.90;;;6.80;46.50;;;;;;5074874;28;20911;-84
2022/02/12 15:48:57;;;;;;;11.70;4.53;;;6.50;48.60;;;;;;5061088;28;20489;-84
2022/02/12 15:51:40;;;;;;;13.73;4.40;;;6.30;49.20;;;;;;5073056;28;20900;-85
2022/02/12 15:54:41;;;;;;;14.07;4.57;;;6.20;49.50;;;;;;5073449;28;20469;-84
2022/02/12 15:57:10;;;;;;;12.43;3.60;;;6.00;52.50;;;;;;5074236;28;20462;-84
2022/02/12 15:59:53;;;;;;;9.73;4.07;;;6.00;51.70;;;;;;5073353;28;20503;-84
2022/02/12 16:02:30;;;;;;;10.47;4.83;;;5.80;52.90;;;;;;5072499;28;20486;-85
2022/02/12 16:05:00;;;;;;;13.67;5.83;;;5.70;54.70;;;;;;5073867;28;20475;-85
2022/02/12 16:07:47;;;;;;;11.47;4.53;;;5.50;56.70;;;;;;5073167;28;20439;-85
2022/02/12 16:10:17;;;;;;;12.33;5.20;;;5.30;56.80;;;;;;5073567;28;20541;-85
2022/02/12 16:12:49;;;;;;;14.33;6.23;;;5.10;57.70;;;;;;5074483;28;20795;-84
2022/02/12 16:15:24;;;;;;;16.27;6.07;;;5.10;60.30;;;;;;5073959;28;20542;-85
2022/02/12 16:17:53;;;;;;;13.33;5.53;;;4.80;62.40;;;;;;5073723;28;20443;-85
2022/02/12 16:20:40;;;;;;;14.13;6.23;;;4.70;65.10;;;;;;5072360;28;20471;-85
2022/02/12 16:23:49;;;;;;;15.13;5.80;;;4.50;67.00;;;;;;5074040;28;20459;-85
2022/02/12 16:26:46;;;;;;;;;;;;;;;;;;;;;
2022/02/12 16:29:13;;;;;;;16.07;5.80;;;4.10;71.10;;;;;;5039871;28;20987;-82
2022/02/12 16:40:57;;;;;;;13.60;6.67;;;3.50;74.90;;;;;;5056607;28;20490;-85
2022/02/12 16:43:53;;;;;;;20.00;6.10;;;3.30;77.00;;;;;;5062733;28;20475;-85
2022/02/12 16:49:22;;;;;;;20.60;7.23;;;3.20;80.00;;;;;;5061303;28;20460;-85
2022/02/12 16:55:31;;;;;;;15.20;6.10;;;3.00;81.70;;;;;;5027893;28;20477;-85
2022/02/12 16:58:22;;;;;;;14.33;5.70;;;3.10;81.80;;;;;;4990162;28;20522;-85
2022/02/12 17:01:37;;;;;;;13.20;6.03;;;3.10;81.20;;;;;;5069922;28;20450;-85
2022/02/12 17:04:31;;;;;;;10.50;5.07;;;3.10;80.70;;;;;;5059636;28;20489;-85
2022/02/12 17:11:01;;;;;;;;;;;;;;;;;;;;;
2022/02/12 17:13:46;;;;;;;13.17;5.37;;;3.20;78.50;;;;;;5069919;28;21065;-85
2022/02/12 17:16:26;;;;;;;14.57;5.87;;;3.20;78.30;;;;;;5070098;28;20451;-85
2022/02/12 17:19:07;;;;;;;13.10;5.10;;;3.20;78.00;;;;;;5066608;28;20494;-85
2022/02/12 17:25:15;;;;;;;8.90;5.40;;;3.10;78.60;;;;;;5067226;28;20539;-85
2022/02/12 17:27:55;;;;;;;10.57;5.83;;;3.10;78.70;;;;;;5067419;28;20578;-85
2022/02/12 17:30:57;;;;;;;;;;;;;;;;;;;;;
2022/02/12 17:34:02;;;;;;;14.50;6.67;;;2.90;79.10;;;;;;5046208;28;20452;-85
2022/02/12 17:43:40;;;;;;;13.07;9.00;;;2.60;83.30;;;;;;5066312;28;20960;-85
2022/02/12 17:46:27;;;;;;;11.13;7.30;;;2.40;84.60;;;;;;5035897;28;20452;-86
2022/02/12 17:49:00;;;;;;;21.53;9.27;;;2.30;85.80;;;;;;5047332;28;20467;-84
2022/02/12 17:52:02;;;;;;;10.03;8.03;;;2.20;86.60;;;;;;5061994;28;20443;-84
2022/02/12 17:57:39;;;;;;;11.93;9.47;;;2.20;88.60;;;;;;5033252;28;20441;-85